Time;durP1;ratioP1;P1;durP2;ratioP2;P2;SDS_P1;SDS_P2;PMS_P1;PMS_P2;Temp;Humidity;BMP_temperature;BMP_pressure;BME280_temperature;BME280_humidity;BME280_pressure;Samples;Min_cycle;Max_cycle;Signal;HPM_P1;HPM_P2
2023/03/25 00:01:31;;;;;;;0.90;0.90;;;;;;;;;;4972554;28;20190;-68
2023/03/25 00:03:57;;;;;;;1.00;1.00;;;;;;;;;;4975375;28;20296;-68
2023/03/25 00:06:23;;;;;;;0.80;0.80;;;;;;;;;;4977573;28;20210;-69
2023/03/25 00:08:49;;;;;;;0.80;0.80;;;;;;;;;;4978141;28;20187;-68
2023/03/25 00:11:15;;;;;;;0.90;0.90;;;;;;;;;;4974421;28;20341;-68
2023/03/25 00:13:41;;;;;;;0.80;0.80;;;;;;;;;;4981087;28;20304;-68
2023/03/25 00:16:09;;;;;;;0.80;0.80;;;;;;;;;;4983199;28;20706;-68
2023/03/25 00:18:36;;;;;;;0.90;0.90;;;;;;;;;;4981315;28;20195;-68
2023/03/25 00:21:02;;;;;;;1.10;1.10;;;;;;;;;;4980907;28;20293;-68
2023/03/25 00:23:28;;;;;;;1.00;1.00;;;;;;;;;;4975222;28;20202;-68
2023/03/25 00:25:59;;;;;;;1.10;1.10;;;;;;;;;;4981664;28;20681;-67
2023/03/25 00:28:25;;;;;;;1.10;1.10;;;;;;;;;;4977658;28;20262;-68
2023/03/25 00:30:52;;;;;;;1.10;1.10;;;;;;;;;;4976324;28;20190;-68
2023/03/25 00:33:18;;;;;;;1.40;1.40;;;;;;;;;;4977014;28;20232;-68
2023/03/25 00:35:44;;;;;;;0.90;0.90;;;;;;;;;;4976314;28;20202;-68
2023/03/25 00:38:10;;;;;;;1.00;1.00;;;;;;;;;;4978136;28;20880;-68
2023/03/25 00:40:36;;;;;;;1.10;1.10;;;;;;;;;;4976139;28;20194;-68
2023/03/25 00:43:03;;;;;;;1.10;1.10;;;;;;;;;;4974289;28;20605;-69
2023/03/25 00:45:29;;;;;;;1.20;1.20;;;;;;;;;;4973695;28;20561;-67
2023/03/25 00:47:55;;;;;;;1.23;1.23;;;;;;;;;;4962028;28;20593;-68
2023/03/25 00:50:21;;;;;;;1.10;1.10;;;;;;;;;;4972943;28;20234;-68
2023/03/25 00:52:47;;;;;;;1.10;1.10;;;;;;;;;;4972782;28;20233;-68
2023/03/25 00:55:13;;;;;;;1.30;1.30;;;;;;;;;;4978525;28;20828;-67
2023/03/25 00:57:39;;;;;;;1.00;1.00;;;;;;;;;;4975791;28;20194;-67
2023/03/25 01:00:07;;;;;;;1.00;1.00;;;;;;;;;;4956012;28;20193;-68
2023/03/25 01:02:33;;;;;;;1.30;1.30;;;;;;;;;;4975951;28;20217;-68
2023/03/25 01:04:59;;;;;;;1.30;1.30;;;;;;;;;;4978065;28;20191;-67
2023/03/25 01:07:28;;;;;;;1.00;1.00;;;;;;;;;;4979749;28;20818;-69
2023/03/25 01:09:54;;;;;;;1.20;1.20;;;;;;;;;;4980372;28;21095;-68
2023/03/25 01:12:20;;;;;;;1.20;1.20;;;;;;;;;;4972277;28;20277;-68
2023/03/25 01:14:46;;;;;;;1.10;1.10;;;;;;;;;;4981794;28;20265;-68
2023/03/25 01:17:12;;;;;;;1.10;1.10;;;;;;;;;;4977996;28;20651;-68
2023/03/25 01:19:38;;;;;;;1.00;1.00;;;;;;;;;;4978688;28;20758;-68
2023/03/25 01:22:04;;;;;;;1.20;1.20;;;;;;;;;;4978891;28;20195;-68
2023/03/25 01:24:30;;;;;;;1.10;1.10;;;;;;;;;;4976593;28;20697;-68
2023/03/25 01:26:56;;;;;;;1.03;1.03;;;;;;;;;;4978883;28;20191;-68
2023/03/25 01:29:22;;;;;;;1.10;1.10;;;;;;;;;;4978038;28;20712;-68
2023/03/25 01:31:48;;;;;;;1.10;1.10;;;;;;;;;;4975997;28;20185;-68
2023/03/25 01:34:14;;;;;;;1.10;1.10;;;;;;;;;;4959925;28;20198;-67
2023/03/25 01:36:45;;;;;;;1.10;1.10;;;;;;;;;;4981184;28;20187;-67
2023/03/25 01:39:11;;;;;;;1.00;1.00;;;;;;;;;;4978737;28;20583;-69
2023/03/25 01:41:37;;;;;;;1.20;1.20;;;;;;;;;;4977175;28;20179;-68
2023/03/25 01:44:23;;;;;;;1.10;1.10;;;;;;;;;;4981045;28;20227;-68
2023/03/25 01:46:51;;;;;;;1.00;1.00;;;;;;;;;;4945816;28;21200;-68
2023/03/25 01:49:38;;;;;;;1.00;1.00;;;;;;;;;;4973681;28;20210;-68
2023/03/25 01:52:16;;;;;;;0.90;0.90;;;;;;;;;;4977831;28;20191;-68
2023/03/25 01:54:42;;;;;;;1.10;1.10;;;;;;;;;;4976235;28;20286;-67
2023/03/25 01:57:09;;;;;;;1.10;1.10;;;;;;;;;;4975947;28;20197;-67
2023/03/25 01:59:35;;;;;;;1.00;1.00;;;;;;;;;;4973989;28;20206;-67
2023/03/25 02:02:01;;;;;;;1.20;1.20;;;;;;;;;;4977395;28;20199;-73
2023/03/25 02:04:50;;;;;;;1.20;1.20;;;;;;;;;;4972877;23;20332;-50
2023/03/25 02:07:17;;;;;;;1.13;1.13;;;;;;;;;;4945633;28;20246;-49
2023/03/25 02:09:43;;;;;;;0.90;0.90;;;;;;;;;;4954004;28;20221;-53
2023/03/25 02:12:09;;;;;;;1.07;1.07;;;;;;;;;;4953435;28;20298;-52
2023/03/25 02:14:35;;;;;;;1.17;1.17;;;;;;;;;;4956944;28;20272;-54
2023/03/25 02:17:01;;;;;;;1.10;1.10;;;;;;;;;;4957316;28;20206;-52
2023/03/25 02:19:46;;;;;;;1.20;1.20;;;;;;;;;;4954652;28;20199;-52
2023/03/25 02:22:36;;;;;;;1.00;1.00;;;;;;;;;;4955261;28;20195;-51
2023/03/25 02:25:20;;;;;;;1.00;1.00;;;;;;;;;;4961891;28;20212;-55
2023/03/25 02:27:49;;;;;;;1.10;1.10;;;;;;;;;;4957111;28;20179;-52
2023/03/25 02:30:35;;;;;;;1.20;1.20;;;;;;;;;;4959912;28;20179;-51
2023/03/25 02:33:13;;;;;;;1.20;1.20;;;;;;;;;;4952552;28;20273;-52
2023/03/25 02:35:58;;;;;;;1.17;1.17;;;;;;;;;;4954851;28;20195;-52
2023/03/25 02:38:39;;;;;;;1.20;1.20;;;;;;;;;;4961100;28;20281;-52
2023/03/25 02:41:11;;;;;;;1.10;1.10;;;;;;;;;;4959124;28;20194;-52
2023/03/25 02:43:44;;;;;;;1.30;1.30;;;;;;;;;;4962595;28;20292;-55
2023/03/25 02:46:11;;;;;;;1.20;1.20;;;;;;;;;;4957605;28;20666;-52
2023/03/25 02:48:40;;;;;;;1.40;1.40;;;;;;;;;;4961891;28;20209;-52
2023/03/25 02:51:09;;;;;;;1.10;1.10;;;;;;;;;;4957598;28;20603;-52
2023/03/25 02:53:35;;;;;;;1.30;1.30;;;;;;;;;;4955948;28;20195;-53
2023/03/25 02:56:01;;;;;;;1.20;1.20;;;;;;;;;;4953995;28;20195;-51
2023/03/25 02:58:28;;;;;;;1.10;1.10;;;;;;;;;;4960234;28;20267;-53
2023/03/25 03:00:57;;;;;;;1.10;1.10;;;;;;;;;;4957264;28;20192;-52
2023/03/25 03:03:23;;;;;;;1.20;1.20;;;;;;;;;;4963959;28;20234;-52
2023/03/25 03:05:49;;;;;;;1.27;1.27;;;;;;;;;;4976102;28;20273;-53
2023/03/25 03:08:31;;;;;;;1.20;1.20;;;;;;;;;;4972598;28;20190;-52
2023/03/25 03:11:15;;;;;;;1.00;1.00;;;;;;;;;;4972748;28;20197;-52
2023/03/25 03:13:47;;;;;;;1.20;1.20;;;;;;;;;;4974224;28;20233;-52
2023/03/25 03:16:32;;;;;;;1.47;1.47;;;;;;;;;;4976835;28;20213;-52
2023/03/25 03:19:02;;;;;;;1.30;1.30;;;;;;;;;;4977154;28;20199;-53
2023/03/25 03:21:34;;;;;;;1.20;1.20;;;;;;;;;;4976004;28;20189;-52
2023/03/25 03:24:03;;;;;;;1.10;1.10;;;;;;;;;;4974666;28;20215;-52
2023/03/25 03:26:39;;;;;;;1.20;1.20;;;;;;;;;;4971084;28;20656;-51
2023/03/25 03:29:19;;;;;;;1.10;1.10;;;;;;;;;;4978915;28;20627;-52
2023/03/25 03:32:04;;;;;;;1.20;1.20;;;;;;;;;;4979135;28;20186;-52
2023/03/25 03:34:33;;;;;;;1.10;1.10;;;;;;;;;;4975229;28;20233;-52
2023/03/25 03:36:59;;;;;;;1.10;1.10;;;;;;;;;;4973371;28;20221;-51
2023/03/25 03:39:26;;;;;;;1.13;1.13;;;;;;;;;;4968084;28;20186;-52
2023/03/25 03:41:53;;;;;;;1.20;1.20;;;;;;;;;;4975507;28;20195;-52
2023/03/25 03:44:20;;;;;;;1.20;1.20;;;;;;;;;;4961880;28;20280;-52
2023/03/25 03:47:18;;;;;;;1.20;1.20;;;;;;;;;;4975677;28;20186;-51
2023/03/25 03:49:46;;;;;;;1.20;1.20;;;;;;;;;;4937423;28;20215;-51
2023/03/25 03:52:17;;;;;;;1.50;1.50;;;;;;;;;;4967255;28;20265;-51
2023/03/25 03:54:50;;;;;;;1.60;1.60;;;;;;;;;;4967286;28;20293;-52
2023/03/25 03:57:20;;;;;;;1.70;1.70;;;;;;;;;;4975617;28;20190;-51
2023/03/25 04:00:05;;;;;;;1.70;1.70;;;;;;;;;;4977437;28;20194;-51
2023/03/25 04:02:38;;;;;;;1.10;1.10;;;;;;;;;;4969269;28;20665;-53
2023/03/25 04:05:07;;;;;;;1.10;1.10;;;;;;;;;;4971457;28;20197;-52
2023/03/25 04:07:37;;;;;;;1.30;1.30;;;;;;;;;;4970794;28;20744;-51
2023/03/25 04:10:13;;;;;;;1.10;1.10;;;;;;;;;;4978685;28;20714;-51
2023/03/25 04:12:41;;;;;;;1.10;1.10;;;;;;;;;;4965653;28;20246;-52
2023/03/25 04:15:07;;;;;;;1.10;1.10;;;;;;;;;;4972518;28;20197;-52
2023/03/25 04:17:33;;;;;;;1.10;1.10;;;;;;;;;;4972498;28;20617;-53
2023/03/25 04:20:00;;;;;;;1.30;1.30;;;;;;;;;;4972542;28;20214;-53
2023/03/25 04:22:26;;;;;;;1.10;1.10;;;;;;;;;;4970626;28;20195;-52
2023/03/25 04:24:53;;;;;;;1.10;1.10;;;;;;;;;;4968354;28;20205;-53
2023/03/25 04:27:21;;;;;;;1.20;1.20;;;;;;;;;;4970278;28;20179;-53
2023/03/25 04:29:47;;;;;;;1.20;1.20;;;;;;;;;;4970518;28;20646;-53
2023/03/25 04:32:13;;;;;;;1.30;1.30;;;;;;;;;;4974381;28;20187;-53
2023/03/25 04:34:39;;;;;;;1.20;1.20;;;;;;;;;;4970852;28;20564;-52
2023/03/25 04:37:05;;;;;;;1.10;1.10;;;;;;;;;;4975741;28;20222;-52
2023/03/25 04:39:31;;;;;;;1.00;1.00;;;;;;;;;;4972136;28;20195;-52
2023/03/25 04:42:02;;;;;;;1.30;1.30;;;;;;;;;;4969605;28;20288;-52
2023/03/25 04:44:28;;;;;;;1.30;1.30;;;;;;;;;;4974384;28;20264;-52
2023/03/25 04:46:57;;;;;;;1.30;1.30;;;;;;;;;;4974525;28;20190;-51
2023/03/25 04:49:23;;;;;;;1.20;1.20;;;;;;;;;;4972379;28;20280;-52
2023/03/25 04:51:50;;;;;;;1.40;1.40;;;;;;;;;;4975971;28;20183;-50
2023/03/25 04:54:19;;;;;;;1.10;1.10;;;;;;;;;;4975933;28;21257;-51
2023/03/25 04:56:49;;;;;;;1.20;1.20;;;;;;;;;;4972953;28;20674;-52
2023/03/25 04:59:15;;;;;;;1.13;1.13;;;;;;;;;;4977820;28;20194;-51
2023/03/25 05:01:44;;;;;;;1.30;1.30;;;;;;;;;;4968661;28;20770;-51
2023/03/25 05:04:11;;;;;;;1.00;1.00;;;;;;;;;;4974126;28;20769;-50
2023/03/25 05:06:41;;;;;;;1.40;1.40;;;;;;;;;;4970969;28;20245;-51
2023/03/25 05:09:08;;;;;;;1.10;1.10;;;;;;;;;;4978447;28;20278;-51
2023/03/25 05:11:35;;;;;;;1.20;1.20;;;;;;;;;;4971220;28;20294;-53
2023/03/25 05:14:01;;;;;;;1.20;1.20;;;;;;;;;;4975851;28;20488;-52
2023/03/25 05:16:27;;;;;;;1.17;1.17;;;;;;;;;;4971191;28;20667;-51
2023/03/25 05:18:53;;;;;;;1.10;1.10;;;;;;;;;;4972676;28;20196;-52
2023/03/25 05:21:20;;;;;;;1.10;1.10;;;;;;;;;;4974753;28;20222;-51
2023/03/25 05:23:46;;;;;;;1.07;1.07;;;;;;;;;;4972386;28;20230;-52
2023/03/25 05:26:12;;;;;;;1.10;1.10;;;;;;;;;;4970436;28;20246;-52
2023/03/25 05:28:38;;;;;;;1.00;1.00;;;;;;;;;;4971858;28;20906;-52
2023/03/25 05:31:07;;;;;;;1.00;1.00;;;;;;;;;;4973213;28;20195;-52
2023/03/25 05:33:33;;;;;;;1.10;1.10;;;;;;;;;;4973002;28;20218;-50
2023/03/25 05:36:00;;;;;;;1.10;1.10;;;;;;;;;;4974726;28;20288;-51
2023/03/25 05:38:26;;;;;;;1.10;1.10;;;;;;;;;;4975232;28;20202;-52
2023/03/25 05:40:52;;;;;;;1.00;1.00;;;;;;;;;;4973585;28;20734;-52
2023/03/25 05:43:21;;;;;;;1.10;1.10;;;;;;;;;;4950557;28;20624;-52
2023/03/25 05:45:48;;;;;;;1.10;1.10;;;;;;;;;;4973123;28;20189;-51
2023/03/25 05:48:14;;;;;;;1.20;1.20;;;;;;;;;;4971933;28;20911;-51
2023/03/25 05:50:42;;;;;;;1.10;1.10;;;;;;;;;;4974269;28;20286;-52
2023/03/25 05:53:11;;;;;;;1.20;1.20;;;;;;;;;;4977253;28;20233;-52
2023/03/25 05:55:37;;;;;;;1.30;1.30;;;;;;;;;;4977719;28;20301;-51
2023/03/25 05:58:04;;;;;;;1.10;1.10;;;;;;;;;;4978921;28;20266;-51
2023/03/25 06:00:30;;;;;;;1.00;1.00;;;;;;;;;;4979744;28;20230;-53
2023/03/25 06:02:57;;;;;;;1.10;1.10;;;;;;;;;;4976849;28;20747;-52
2023/03/25 06:05:24;;;;;;;1.10;1.10;;;;;;;;;;4977855;28;20531;-53
2023/03/25 06:07:50;;;;;;;1.00;1.00;;;;;;;;;;4976595;28;20206;-51
2023/03/25 06:10:16;;;;;;;1.00;1.00;;;;;;;;;;4974018;28;21208;-51
2023/03/25 06:12:44;;;;;;;1.13;1.13;;;;;;;;;;4976357;28;20662;-52
2023/03/25 06:15:10;;;;;;;1.10;1.10;;;;;;;;;;4977977;28;20194;-52
2023/03/25 06:17:39;;;;;;;1.10;1.10;;;;;;;;;;4978113;28;20278;-53
2023/03/25 06:20:10;;;;;;;1.10;1.10;;;;;;;;;;4979504;28;20204;-52
2023/03/25 06:22:45;;;;;;;1.20;1.20;;;;;;;;;;4974901;28;20195;-51
2023/03/25 06:25:11;;;;;;;1.27;1.27;;;;;;;;;;4979694;28;20529;-52
2023/03/25 06:27:39;;;;;;;1.20;1.20;;;;;;;;;;4982293;28;20225;-51
2023/03/25 06:30:06;;;;;;;1.00;1.00;;;;;;;;;;4974732;28;20562;-52
2023/03/25 06:32:32;;;;;;;1.20;1.20;;;;;;;;;;4973446;28;20194;-51
2023/03/25 06:34:58;;;;;;;0.90;0.90;;;;;;;;;;4972517;28;20619;-52
2023/03/25 06:37:25;;;;;;;1.00;1.00;;;;;;;;;;4969540;28;20600;-51
2023/03/25 06:39:55;;;;;;;1.07;1.07;;;;;;;;;;4977595;28;20245;-51
2023/03/25 06:42:21;;;;;;;1.10;1.10;;;;;;;;;;4972949;28;20201;-51
2023/03/25 06:44:47;;;;;;;1.10;1.10;;;;;;;;;;4981843;28;20188;-52
2023/03/25 06:47:13;;;;;;;1.00;1.00;;;;;;;;;;4972997;28;20182;-52
2023/03/25 06:49:39;;;;;;;1.00;1.00;;;;;;;;;;4975975;28;20227;-50
2023/03/25 06:52:05;;;;;;;1.20;1.20;;;;;;;;;;4975533;28;20184;-52
2023/03/25 06:54:31;;;;;;;1.10;1.10;;;;;;;;;;4972796;28;20187;-52
2023/03/25 06:56:57;;;;;;;1.20;1.20;;;;;;;;;;4979361;28;20207;-51
2023/03/25 06:59:23;;;;;;;1.20;1.20;;;;;;;;;;4974006;28;20217;-53
2023/03/25 07:01:49;;;;;;;1.20;1.20;;;;;;;;;;4965573;28;20215;-54
2023/03/25 07:04:15;;;;;;;1.10;1.10;;;;;;;;;;4971048;28;20318;-51
2023/03/25 07:06:41;;;;;;;1.00;1.00;;;;;;;;;;4975816;28;20186;-52
2023/03/25 07:09:07;;;;;;;1.10;1.10;;;;;;;;;;4972433;28;20201;-53
2023/03/25 07:11:33;;;;;;;1.20;1.20;;;;;;;;;;4967911;28;20194;-52
2023/03/25 07:13:59;;;;;;;1.00;1.00;;;;;;;;;;4963847;28;20202;-52
2023/03/25 07:16:25;;;;;;;1.10;1.10;;;;;;;;;;4971067;28;20360;-52
2023/03/25 07:18:52;;;;;;;1.20;1.20;;;;;;;;;;4971838;28;20194;-53
2023/03/25 07:21:18;;;;;;;1.00;1.00;;;;;;;;;;4975586;28;20231;-52
2023/03/25 07:23:44;;;;;;;1.00;1.00;;;;;;;;;;4967572;28;21536;-52
2023/03/25 07:26:12;;;;;;;1.20;1.20;;;;;;;;;;4963061;28;20194;-54
2023/03/25 07:28:38;;;;;;;0.90;0.90;;;;;;;;;;4968283;28;20597;-52
2023/03/25 07:31:13;;;;;;;1.10;1.10;;;;;;;;;;4961361;28;20195;-52
2023/03/25 07:33:39;;;;;;;1.00;1.00;;;;;;;;;;4970001;28;20197;-53
2023/03/25 07:36:06;;;;;;;1.10;1.10;;;;;;;;;;4969354;28;20198;-54
2023/03/25 07:38:32;;;;;;;1.10;1.10;;;;;;;;;;4970671;28;20946;-53
2023/03/25 07:40:58;;;;;;;1.30;1.30;;;;;;;;;;4967901;28;20222;-52
2023/03/25 07:43:24;;;;;;;1.00;1.00;;;;;;;;;;4960732;28;20264;-53
2023/03/25 07:45:50;;;;;;;1.17;1.17;;;;;;;;;;4972480;28;20191;-54
2023/03/25 07:48:16;;;;;;;1.10;1.10;;;;;;;;;;4958667;28;20274;-52
2023/03/25 07:50:42;;;;;;;1.10;1.10;;;;;;;;;;4969688;28;20611;-52
2023/03/25 07:53:08;;;;;;;1.20;1.20;;;;;;;;;;4972890;28;20211;-52
2023/03/25 07:55:34;;;;;;;1.10;1.10;;;;;;;;;;4979417;28;20320;-53
2023/03/25 07:58:01;;;;;;;1.30;1.30;;;;;;;;;;4973197;28;20205;-53
2023/03/25 08:00:27;;;;;;;1.03;1.03;;;;;;;;;;4973266;28;20194;-51
2023/03/25 08:02:53;;;;;;;1.17;1.17;;;;;;;;;;4969871;28;20249;-51
2023/03/25 08:05:23;;;;;;;1.13;1.13;;;;;;;;;;4971935;28;20199;-51
2023/03/25 08:07:50;;;;;;;1.10;1.10;;;;;;;;;;4967593;28;20651;-51
2023/03/25 08:10:16;;;;;;;1.10;1.10;;;;;;;;;;4971369;28;20670;-52
2023/03/25 08:12:42;;;;;;;1.30;1.30;;;;;;;;;;4966303;28;20208;-54
2023/03/25 08:15:08;;;;;;;1.10;1.10;;;;;;;;;;4967067;28;20187;-54
2023/03/25 08:17:34;;;;;;;1.10;1.10;;;;;;;;;;4970715;28;20183;-52
2023/03/25 08:20:02;;;;;;;1.03;1.03;;;;;;;;;;4972262;28;20788;-51
2023/03/25 08:22:29;;;;;;;1.10;1.10;;;;;;;;;;4965147;28;20202;-54
2023/03/25 08:24:55;;;;;;;1.20;1.20;;;;;;;;;;4962430;28;20190;-53
2023/03/25 08:27:21;;;;;;;1.10;1.10;;;;;;;;;;4961308;28;20665;-53
2023/03/25 08:29:53;;;;;;;1.00;1.00;;;;;;;;;;4961047;28;20655;-52
2023/03/25 08:32:19;;;;;;;0.90;0.90;;;;;;;;;;4956253;28;20190;-53
2023/03/25 08:34:45;;;;;;;1.27;1.27;;;;;;;;;;4957401;28;20308;-54
2023/03/25 08:37:12;;;;;;;1.00;1.00;;;;;;;;;;4959017;28;20191;-54
2023/03/25 08:39:40;;;;;;;1.10;1.10;;;;;;;;;;4957241;28;20191;-55
2023/03/25 08:42:07;;;;;;;1.10;1.10;;;;;;;;;;4954306;28;20233;-52
2023/03/25 08:44:33;;;;;;;1.00;1.00;;;;;;;;;;4953571;28;20250;-53
2023/03/25 08:46:59;;;;;;;1.10;1.10;;;;;;;;;;4972053;28;20302;-54
2023/03/25 08:49:25;;;;;;;1.10;1.10;;;;;;;;;;4969229;28;20465;-52
2023/03/25 08:51:51;;;;;;;1.20;1.20;;;;;;;;;;4976371;28;20196;-53
2023/03/25 08:54:17;;;;;;;1.10;1.10;;;;;;;;;;4959569;28;20297;-52
2023/03/25 08:56:43;;;;;;;1.37;1.37;;;;;;;;;;4971932;28;20213;-52
2023/03/25 08:59:10;;;;;;;1.00;1.00;;;;;;;;;;4976297;28;20277;-52
2023/03/25 09:01:36;;;;;;;1.00;1.00;;;;;;;;;;4972956;28;20584;-55
2023/03/25 09:04:02;;;;;;;0.90;0.90;;;;;;;;;;4968827;28;21032;-52
2023/03/25 09:06:28;;;;;;;1.10;1.10;;;;;;;;;;4970262;28;20190;-52
2023/03/25 09:08:54;;;;;;;0.90;0.90;;;;;;;;;;4976990;28;20182;-53
2023/03/25 09:11:21;;;;;;;1.10;1.10;;;;;;;;;;4970158;28;20651;-52
2023/03/25 09:13:47;;;;;;;1.00;1.00;;;;;;;;;;4974477;28;20253;-55
2023/03/25 09:16:13;;;;;;;0.90;0.90;;;;;;;;;;4971687;28;20191;-52
2023/03/25 09:18:39;;;;;;;1.07;1.07;;;;;;;;;;4974268;28;20393;-53
2023/03/25 09:21:05;;;;;;;1.20;1.20;;;;;;;;;;4974869;28;20201;-53
2023/03/25 09:23:31;;;;;;;0.90;0.90;;;;;;;;;;4972515;28;20258;-54
2023/03/25 09:26:01;;;;;;;0.80;0.80;;;;;;;;;;4976582;28;20190;-52
2023/03/25 09:28:27;;;;;;;0.90;0.90;;;;;;;;;;4978350;28;20187;-53
2023/03/25 09:30:53;;;;;;;0.90;0.90;;;;;;;;;;4977715;28;20187;-54
2023/03/25 09:33:20;;;;;;;1.10;1.10;;;;;;;;;;4975404;28;20673;-51
2023/03/25 09:35:46;;;;;;;1.83;1.73;;;;;;;;;;4972924;28;20605;-50
2023/03/25 09:38:12;;;;;;;1.30;1.30;;;;;;;;;;4979557;28;20355;-53
2023/03/25 09:40:40;;;;;;;1.40;1.40;;;;;;;;;;4979235;28;20198;-53
2023/03/25 09:43:09;;;;;;;1.50;1.50;;;;;;;;;;4976281;28;20223;-55
2023/03/25 09:45:36;;;;;;;2.20;2.10;;;;;;;;;;4981833;28;20196;-53
2023/03/25 09:48:04;;;;;;;2.20;2.10;;;;;;;;;;4970336;28;20198;-53
2023/03/25 09:50:31;;;;;;;2.00;1.90;;;;;;;;;;4978612;28;20186;-52
2023/03/25 09:52:58;;;;;;;2.17;2.07;;;;;;;;;;4981009;28;20199;-52
2023/03/25 09:55:25;;;;;;;2.00;1.90;;;;;;;;;;4980916;28;20202;-53
2023/03/25 09:57:54;;;;;;;2.20;2.10;;;;;;;;;;4978240;28;20682;-51
2023/03/25 10:00:22;;;;;;;1.80;1.70;;;;;;;;;;4963201;28;20198;-53
2023/03/25 10:02:51;;;;;;;2.10;2.00;;;;;;;;;;4965288;28;20198;-51
2023/03/25 10:05:49;;;;;;;2.20;2.10;;;;;;;;;;4968724;28;20179;-51
2023/03/25 10:08:19;;;;;;;1.90;1.80;;;;;;;;;;4939737;28;20613;-52
2023/03/25 10:11:04;;;;;;;1.83;1.73;;;;;;;;;;4981996;28;20416;-51
2023/03/25 10:13:45;;;;;;;1.60;1.60;;;;;;;;;;4980626;28;20604;-51
2023/03/25 10:16:14;;;;;;;1.60;1.60;;;;;;;;;;4972874;28;20795;-51
2023/03/25 10:18:59;;;;;;;1.90;1.80;;;;;;;;;;4976851;28;20206;-51
2023/03/25 10:21:26;;;;;;;1.70;1.70;;;;;;;;;;4961391;28;20198;-52
2023/03/25 10:23:58;;;;;;;1.90;1.80;;;;;;;;;;4958438;28;20222;-52
2023/03/25 10:26:25;;;;;;;1.60;1.60;;;;;;;;;;4970452;28;20191;-54
2023/03/25 10:28:56;;;;;;;1.30;1.30;;;;;;;;;;4960449;28;20659;-52
2023/03/25 10:31:24;;;;;;;1.30;1.30;;;;;;;;;;4978129;28;20275;-54
2023/03/25 10:33:57;;;;;;;1.20;1.20;;;;;;;;;;4976675;28;20194;-53
2023/03/25 10:36:29;;;;;;;1.90;1.80;;;;;;;;;;4972623;28;20305;-52
2023/03/25 10:38:55;;;;;;;1.40;1.40;;;;;;;;;;4975184;28;20199;-52
2023/03/25 10:41:26;;;;;;;1.40;1.40;;;;;;;;;;4978574;28;20202;-53
2023/03/25 10:43:52;;;;;;;1.60;1.60;;;;;;;;;;4979642;28;20260;-52
2023/03/25 10:46:36;;;;;;;2.07;1.97;;;;;;;;;;4978384;28;20182;-54
2023/03/25 10:49:02;;;;;;;1.57;1.57;;;;;;;;;;4978920;28;20194;-52
2023/03/25 10:51:34;;;;;;;2.00;1.90;;;;;;;;;;4979496;28;20206;-53
2023/03/25 10:54:00;;;;;;;2.00;1.90;;;;;;;;;;4980335;28;20273;-51
2023/03/25 10:56:26;;;;;;;1.90;1.80;;;;;;;;;;4978304;28;20190;-53
2023/03/25 10:58:53;;;;;;;2.10;2.00;;;;;;;;;;4982415;28;20194;-53
2023/03/25 11:01:20;;;;;;;2.10;2.00;;;;;;;;;;4971759;28;20211;-53
2023/03/25 11:03:50;;;;;;;2.10;2.00;;;;;;;;;;4964155;28;20317;-53
2023/03/25 11:06:24;;;;;;;1.20;1.20;;;;;;;;;;4979903;28;20185;-53
2023/03/25 11:09:08;;;;;;;1.10;1.10;;;;;;;;;;4975573;28;20202;-52
2023/03/25 11:11:35;;;;;;;1.10;1.10;;;;;;;;;;4970046;28;20245;-53
2023/03/25 11:14:01;;;;;;;3.28;3.17;;;;;;;;;;4974493;28;20286;-53
2023/03/25 11:16:30;;;;;;;1.65;1.65;;;;;;;;;;4975256;28;20187;-52
2023/03/25 11:18:58;;;;;;;2.40;2.30;;;;;;;;;;4978997;28;20197;-53
2023/03/25 11:21:24;;;;;;;1.90;1.80;;;;;;;;;;4964715;28;20198;-54
2023/03/25 11:23:50;;;;;;;1.20;1.20;;;;;;;;;;4977062;28;20260;-52
2023/03/25 11:26:16;;;;;;;1.30;1.30;;;;;;;;;;4979479;28;20190;-53
2023/03/25 11:28:45;;;;;;;1.30;1.30;;;;;;;;;;4977743;28;20197;-55
2023/03/25 11:31:11;;;;;;;1.40;1.40;;;;;;;;;;4974907;28;20215;-53
2023/03/25 11:33:37;;;;;;;2.20;2.10;;;;;;;;;;4975587;28;20685;-52
2023/03/25 11:36:30;;;;;;;4.78;4.57;;;;;;;;;;4978565;28;20223;-52
2023/03/25 11:38:57;;;;;;;2.30;2.20;;;;;;;;;;4976041;28;20197;-53
2023/03/25 11:41:23;;;;;;;2.30;2.20;;;;;;;;;;4977758;28;20191;-53
2023/03/25 11:43:49;;;;;;;2.40;2.30;;;;;;;;;;4969679;28;20210;-53
2023/03/25 11:46:16;;;;;;;2.10;2.00;;;;;;;;;;4979048;28;20269;-52
2023/03/25 11:48:42;;;;;;;2.00;1.90;;;;;;;;;;4974759;28;20194;-53
2023/03/25 11:51:12;;;;;;;1.98;1.88;;;;;;;;;;4974556;28;20186;-52
2023/03/25 11:53:42;;;;;;;1.90;1.80;;;;;;;;;;4975810;28;20194;-52
2023/03/25 11:56:10;;;;;;;2.10;2.00;;;;;;;;;;4975889;28;20218;-54
2023/03/25 11:58:36;;;;;;;1.70;1.70;;;;;;;;;;4979053;28;20198;-53
2023/03/25 12:01:23;;;;;;;1.90;1.80;;;;;;;;;;4978718;28;20191;-54
2023/03/25 12:03:49;;;;;;;1.95;1.85;;;;;;;;;;4965278;28;20226;-54
2023/03/25 12:06:20;;;;;;;2.20;2.10;;;;;;;;;;4974718;28;20192;-53
2023/03/25 12:08:50;;;;;;;2.10;2.00;;;;;;;;;;4975523;28;20556;-52
2023/03/25 12:11:17;;;;;;;2.70;2.60;;;;;;;;;;4957431;28;20201;-53
2023/03/25 12:13:46;;;;;;;1.80;1.73;;;;;;;;;;4971952;28;20206;-52
2023/03/25 12:16:15;;;;;;;1.30;1.30;;;;;;;;;;4974996;28;20195;-52
2023/03/25 12:18:54;;;;;;;1.40;1.40;;;;;;;;;;4974284;28;20708;-52
2023/03/25 12:21:23;;;;;;;1.30;1.30;;;;;;;;;;4971646;28;20194;-53
2023/03/25 12:23:55;;;;;;;1.53;1.53;;;;;;;;;;4976718;28;20210;-53
2023/03/25 12:26:42;;;;;;;1.30;1.30;;;;;;;;;;4960808;28;20186;-53
2023/03/25 12:29:19;;;;;;;1.80;1.70;;;;;;;;;;4928577;28;20203;-52
2023/03/25 12:32:02;;;;;;;1.30;1.30;;;;;;;;;;4962051;28;20190;-51
2023/03/25 12:34:48;;;;;;;1.40;1.40;;;;;;;;;;4975826;28;20252;-53
2023/03/25 12:37:33;;;;;;;1.30;1.30;;;;;;;;;;4971461;28;20218;-51
2023/03/25 12:39:59;;;;;;;1.30;1.30;;;;;;;;;;4978632;28;20285;-52
2023/03/25 12:42:25;;;;;;;1.30;1.30;;;;;;;;;;4975921;28;20413;-52
2023/03/25 12:44:58;;;;;;;1.40;1.40;;;;;;;;;;4981170;28;20753;-52
2023/03/25 12:47:28;;;;;;;1.17;1.17;;;;;;;;;;4977153;28;20774;-54
2023/03/25 12:49:56;;;;;;;1.30;1.30;;;;;;;;;;4976889;28;20284;-53
2023/03/25 12:52:25;;;;;;;1.40;1.40;;;;;;;;;;4960823;28;20273;-52
2023/03/25 12:54:51;;;;;;;1.40;1.40;;;;;;;;;;4974216;28;20194;-52
2023/03/25 12:57:17;;;;;;;1.40;1.40;;;;;;;;;;4975122;28;20408;-52
2023/03/25 13:00:06;;;;;;;1.40;1.40;;;;;;;;;;4977179;28;20273;-53
2023/03/25 13:02:41;;;;;;;1.40;1.40;;;;;;;;;;4979402;28;20188;-54
2023/03/25 13:05:22;;;;;;;1.40;1.40;;;;;;;;;;4974299;28;20226;-52
2023/03/25 13:08:06;;;;;;;1.43;1.43;;;;;;;;;;4978230;28;20190;-51
2023/03/25 13:10:36;;;;;;;1.37;1.37;;;;;;;;;;4974631;28;20213;-54
2023/03/25 13:13:03;;;;;;;1.30;1.30;;;;;;;;;;4964673;28;20226;-52
2023/03/25 13:15:34;;;;;;;1.30;1.30;;;;;;;;;;4949911;28;20260;-52
2023/03/25 13:18:09;;;;;;;1.60;1.60;;;;;;;;;;4969446;28;20213;-53
2023/03/25 13:20:37;;;;;;;1.40;1.40;;;;;;;;;;4973638;28;20197;-54
2023/03/25 13:23:03;;;;;;;1.10;1.10;;;;;;;;;;4963148;28;20250;-52
2023/03/25 13:25:48;;;;;;;1.50;1.50;;;;;;;;;;4980539;28;20244;-54
2023/03/25 13:28:16;;;;;;;1.50;1.50;;;;;;;;;;4975461;28;20540;-52
2023/03/25 13:30:43;;;;;;;1.40;1.40;;;;;;;;;;4973617;28;20281;-53
2023/03/25 13:33:16;;;;;;;2.50;2.40;;;;;;;;;;4975084;28;20198;-53
2023/03/25 13:35:46;;;;;;;2.40;2.30;;;;;;;;;;4972220;28;20655;-54
2023/03/25 13:38:35;;;;;;;2.40;2.30;;;;;;;;;;4977069;28;20277;-53
2023/03/25 13:41:14;;;;;;;2.40;2.30;;;;;;;;;;4966006;28;20718;-54
2023/03/25 13:43:47;;;;;;;2.87;2.77;;;;;;;;;;4957407;28;20683;-52
2023/03/25 13:46:13;;;;;;;2.10;2.00;;;;;;;;;;4975812;28;20708;-53
2023/03/25 13:48:50;;;;;;;2.10;2.00;;;;;;;;;;4963409;28;20191;-54
2023/03/25 13:51:16;;;;;;;2.20;2.10;;;;;;;;;;4973458;28;20813;-52
2023/03/25 13:53:45;;;;;;;2.00;1.90;;;;;;;;;;4978469;28;20674;-52
2023/03/25 13:56:30;;;;;;;1.90;1.80;;;;;;;;;;4969943;28;20202;-53
2023/03/25 13:59:09;;;;;;;1.60;1.60;;;;;;;;;;4938527;28;20233;-53
2023/03/25 14:01:39;;;;;;;2.10;2.00;;;;;;;;;;4933262;28;20941;-54
2023/03/25 14:04:15;;;;;;;1.50;1.50;;;;;;;;;;4953415;28;20723;-53
2023/03/25 14:06:44;;;;;;;1.77;1.70;;;;;;;;;;4955929;28;20197;-53
2023/03/25 14:09:13;;;;;;;1.60;1.60;;;;;;;;;;4962884;28;20186;-53
2023/03/25 14:11:46;;;;;;;1.40;1.40;;;;;;;;;;4968951;28;20191;-52
2023/03/25 14:14:15;;;;;;;1.70;1.70;;;;;;;;;;4931582;28;20226;-53
2023/03/25 14:16:43;;;;;;;1.80;1.70;;;;;;;;;;4945000;28;20652;-53
2023/03/25 14:19:16;;;;;;;1.70;1.70;;;;;;;;;;4965812;28;20190;-53
2023/03/25 14:21:44;;;;;;;1.50;1.50;;;;;;;;;;4969920;28;20237;-54
2023/03/25 14:24:10;;;;;;;1.50;1.50;;;;;;;;;;4971032;28;20226;-52
2023/03/25 14:26:36;;;;;;;2.10;2.00;;;;;;;;;;4975751;28;20190;-52
2023/03/25 14:29:06;;;;;;;2.30;2.20;;;;;;;;;;4972481;28;20182;-52
2023/03/25 14:31:32;;;;;;;1.90;1.80;;;;;;;;;;4967174;28;20658;-52
2023/03/25 14:34:01;;;;;;;1.77;1.70;;;;;;;;;;4947727;28;20194;-53
2023/03/25 14:36:31;;;;;;;1.80;1.70;;;;;;;;;;4960960;28;20194;-52
2023/03/25 14:38:57;;;;;;;1.60;1.60;;;;;;;;;;4970610;28;20225;-53
2023/03/25 14:41:41;;;;;;;1.80;1.70;;;;;;;;;;4973231;28;20202;-54
2023/03/25 14:44:17;;;;;;;1.33;1.33;;;;;;;;;;4974713;28;20206;-52
2023/03/25 14:46:45;;;;;;;1.40;1.40;;;;;;;;;;4967213;28;20309;-51
2023/03/25 14:49:18;;;;;;;1.30;1.30;;;;;;;;;;4969279;28;20607;-52
2023/03/25 14:51:44;;;;;;;1.83;1.73;;;;;;;;;;4967611;28;20214;-52
2023/03/25 14:54:19;;;;;;;1.33;1.33;;;;;;;;;;4968749;28;20194;-54
2023/03/25 14:56:48;;;;;;;1.80;1.70;;;;;;;;;;4951601;28;20308;-54